sensor_id;sensor_type;location;lat;lon;timestamp;pressure;altitude;pressure_sealevel;temperature;humidity
18436;BME280;9346;52.006;4.720;2023-05-10T00:00:12;100759.72;;;14.11;100.00
18436;BME280;9346;52.006;4.720;2023-05-10T00:02:38;100761.97;;;14.09;100.00
18436;BME280;9346;52.006;4.720;2023-05-10T00:05:08;100756.22;;;14.06;100.00
18436;BME280;9346;52.006;4.720;2023-05-10T00:07:35;100755.38;;;14.05;100.00
18436;BME280;9346;52.006;4.720;2023-05-10T00:10:03;100755.13;;;14.02;100.00
18436;BME280;9346;52.006;4.720;2023-05-10T00:12:30;100750.28;;;13.94;100.00
18436;BME280;9346;52.006;4.720;2023-05-10T00:14:57;100747.56;;;13.89;100.00
18436;BME280;9346;52.006;4.720;2023-05-10T00:17:24;100754.53;;;13.86;100.00
18436;BME280;9346;52.006;4.720;2023-05-10T00:19:51;100755.97;;;13.84;100.00
18436;BME280;9346;52.006;4.720;2023-05-10T00:22:20;100754.88;;;13.80;100.00
18436;BME280;9346;52.006;4.720;2023-05-10T00:24:47;100756.03;;;13.79;100.00
18436;BME280;9346;52.006;4.720;2023-05-10T00:27:14;100749.34;;;13.80;100.00
18436;BME280;9346;52.006;4.720;2023-05-10T00:29:41;100758.19;;;13.82;100.00
18436;BME280;9346;52.006;4.720;2023-05-10T00:32:08;100763.72;;;13.82;100.00
18436;BME280;9346;52.006;4.720;2023-05-10T00:34:38;100760.97;;;13.82;100.00
18436;BME280;9346;52.006;4.720;2023-05-10T00:37:07;100758.78;;;13.79;100.00
18436;BME280;9346;52.006;4.720;2023-05-10T00:39:36;100767.19;;;13.74;100.00
18436;BME280;9346;52.006;4.720;2023-05-10T00:42:03;100767.22;;;13.69;100.00
18436;BME280;9346;52.006;4.720;2023-05-10T00:44:30;100767.53;;;13.67;100.00
18436;BME280;9346;52.006;4.720;2023-05-10T00:46:57;100772.53;;;13.65;100.00
18436;BME280;9346;52.006;4.720;2023-05-10T00:49:26;100770.88;;;13.64;100.00
18436;BME280;9346;52.006;4.720;2023-05-10T00:51:53;100769.47;;;13.67;100.00
18436;BME280;9346;52.006;4.720;2023-05-10T00:54:24;100768.13;;;13.64;100.00
18436;BME280;9346;52.006;4.720;2023-05-10T00:56:52;100752.94;;;13.62;100.00
18436;BME280;9346;52.006;4.720;2023-05-10T00:59:20;100756.53;;;13.62;100.00
18436;BME280;9346;52.006;4.720;2023-05-10T01:01:47;100755.47;;;13.58;100.00
18436;BME280;9346;52.006;4.720;2023-05-10T01:04:15;100759.34;;;13.57;100.00
18436;BME280;9346;52.006;4.720;2023-05-10T01:06:43;100754.09;;;13.56;100.00
18436;BME280;9346;52.006;4.720;2023-05-10T01:09:10;100762.41;;;13.56;100.00
18436;BME280;9346;52.006;4.720;2023-05-10T01:11:38;100766.31;;;13.55;100.00
18436;BME280;9346;52.006;4.720;2023-05-10T01:14:08;100762.72;;;13.54;100.00
18436;BME280;9346;52.006;4.720;2023-05-10T01:16:39;100763.84;;;13.53;100.00
18436;BME280;9346;52.006;4.720;2023-05-10T01:19:12;100767.41;;;13.53;100.00
18436;BME280;9346;52.006;4.720;2023-05-10T01:21:49;100762.72;;;13.54;100.00
18436;BME280;9346;52.006;4.720;2023-05-10T01:24:46;100776.25;;;13.56;100.00
18436;BME280;9346;52.006;4.720;2023-05-10T01:27:40;100781.78;;;13.56;100.00
18436;BME280;9346;52.006;4.720;2023-05-10T01:33:15;100785.69;;;13.55;100.00
18436;BME280;9346;52.006;4.720;2023-05-10T01:35:52;100785.69;;;13.55;100.00
18436;BME280;9346;52.006;4.720;2023-05-10T01:38:27;100785.69;;;13.55;100.00
18436;BME280;9346;52.006;4.720;2023-05-10T01:41:03;100792.59;;;13.52;100.00
18436;BME280;9346;52.006;4.720;2023-05-10T01:44:10;100799.56;;;13.49;100.00
18436;BME280;9346;52.006;4.720;2023-05-10T01:46:39;100797.63;;;13.50;100.00
18436;BME280;9346;52.006;4.720;2023-05-10T01:49:08;100802.34;;;13.49;100.00
18436;BME280;9346;52.006;4.720;2023-05-10T01:51:39;100802.03;;;13.51;100.00
18436;BME280;9346;52.006;4.720;2023-05-10T01:54:10;100806.75;;;13.50;100.00
18436;BME280;9346;52.006;4.720;2023-05-10T01:56:39;100798.97;;;13.52;100.00
18436;BME280;9346;52.006;4.720;2023-05-10T01:59:13;100799.50;;;13.55;100.00
18436;BME280;9346;52.006;4.720;2023-05-10T02:01:42;100805.56;;;13.57;100.00
18436;BME280;9346;52.006;4.720;2023-05-10T02:04:14;100804.22;;;13.54;100.00
18436;BME280;9346;52.006;4.720;2023-05-10T02:06:42;100804.50;;;13.52;100.00
18436;BME280;9346;52.006;4.720;2023-05-10T02:09:11;100803.38;;;13.53;100.00
18436;BME280;9346;52.006;4.720;2023-05-10T02:11:41;100811.69;;;13.53;100.00
18436;BME280;9346;52.006;4.720;2023-05-10T02:14:12;100804.50;;;13.52;100.00
18436;BME280;9346;52.006;4.720;2023-05-10T02:16:41;100821.66;;;13.55;100.00
18436;BME280;9346;52.006;4.720;2023-05-10T02:19:09;100812.53;;;13.54;100.00
18436;BME280;9346;52.006;4.720;2023-05-10T02:21:37;100813.56;;;13.58;100.00
18436;BME280;9346;52.006;4.720;2023-05-10T02:24:06;100817.19;;;13.59;100.00
18436;BME280;9346;52.006;4.720;2023-05-10T02:26:35;100815.53;;;13.58;100.00
18436;BME280;9346;52.006;4.720;2023-05-10T02:29:03;100817.19;;;13.59;100.00
18436;BME280;9346;52.006;4.720;2023-05-10T02:31:36;100814.41;;;13.59;100.00
18436;BME280;9346;52.006;4.720;2023-05-10T02:34:05;100817.72;;;13.61;100.00
18436;BME280;9346;52.006;4.720;2023-05-10T02:36:32;100814.31;;;13.64;100.00
18436;BME280;9346;52.006;4.720;2023-05-10T02:39:00;100826.25;;;13.64;100.00
18436;BME280;9346;52.006;4.720;2023-05-10T02:41:30;100822.63;;;13.64;100.00
18436;BME280;9346;52.006;4.720;2023-05-10T02:43:59;100821.25;;;13.66;100.00
18436;BME280;9346;52.006;4.720;2023-05-10T02:46:28;100833.66;;;13.69;100.00
18436;BME280;9346;52.006;4.720;2023-05-10T02:48:56;100831.66;;;13.74;100.00
18436;BME280;9346;52.006;4.720;2023-05-10T02:51:25;100832.47;;;13.75;100.00
18436;BME280;9346;52.006;4.720;2023-05-10T02:53:56;100826.13;;;13.74;100.00
18436;BME280;9346;52.006;4.720;2023-05-10T02:56:34;100826.13;;;13.74;100.00
18436;BME280;9346;52.006;4.720;2023-05-10T02:59:02;100830.56;;;13.75;100.00
18436;BME280;9346;52.006;4.720;2023-05-10T03:01:29;100826.94;;;13.75;100.00
18436;BME280;9346;52.006;4.720;2023-05-10T03:03:58;100831.66;;;13.74;100.00
18436;BME280;9346;52.006;4.720;2023-05-10T03:06:25;100823.03;;;13.76;100.00
18436;BME280;9346;52.006;4.720;2023-05-10T03:08:52;100836.88;;;13.76;100.00
18436;BME280;9346;52.006;4.720;2023-05-10T03:11:31;100839.06;;;13.79;100.00
18436;BME280;9346;52.006;4.720;2023-05-10T03:14:09;100826.66;;;13.76;100.00
18436;BME280;9346;52.006;4.720;2023-05-10T03:16:42;100821.41;;;13.75;100.00
18436;BME280;9346;52.006;4.720;2023-05-10T03:19:17;100821.94;;;13.77;100.00
18436;BME280;9346;52.006;4.720;2023-05-10T03:21:49;100825.00;;;13.75;100.00
18436;BME280;9346;52.006;4.720;2023-05-10T03:24:18;100822.75;;;13.77;100.00
18436;BME280;9346;52.006;4.720;2023-05-10T03:26:47;100829.13;;;13.78;100.00
18436;BME280;9346;52.006;4.720;2023-05-10T03:29:15;100837.13;;;13.79;100.00
18436;BME280;9346;52.006;4.720;2023-05-10T03:31:42;100832.72;;;13.78;100.00
18436;BME280;9346;52.006;4.720;2023-05-10T03:34:09;100830.56;;;13.75;100.00
18436;BME280;9346;52.006;4.720;2023-05-10T03:36:38;100831.94;;;13.73;100.00
18436;BME280;9346;52.006;4.720;2023-05-10T03:39:05;100831.13;;;13.72;100.00
18436;BME280;9346;52.006;4.720;2023-05-10T03:41:32;100834.72;;;13.73;100.00
18436;BME280;9346;52.006;4.720;2023-05-10T03:43:59;100835.00;;;13.71;100.00
18436;BME280;9346;52.006;4.720;2023-05-10T03:46:26;100827.53;;;13.72;100.00
18436;BME280;9346;52.006;4.720;2023-05-10T03:48:53;100840.53;;;13.71;100.00
18436;BME280;9346;52.006;4.720;2023-05-10T03:51:20;100840.25;;;13.73;100.00
18436;BME280;9346;52.006;4.720;2023-05-10T03:53:49;100844.69;;;13.74;100.00
18436;BME280;9346;52.006;4.720;2023-05-10T03:56:15;100845.19;;;13.76;100.00
18436;BME280;9346;52.006;4.720;2023-05-10T03:58:42;100842.44;;;13.76;100.00
18436;BME280;9346;52.006;4.720;2023-05-10T04:01:09;100844.09;;;13.77;100.00
18436;BME280;9346;52.006;4.720;2023-05-10T04:03:37;100849.63;;;13.77;100.00
18436;BME280;9346;52.006;4.720;2023-05-10T04:06:05;100846.03;;;13.76;100.00
18436;BME280;9346;52.006;4.720;2023-05-10T04:08:33;100850.72;;;13.76;100.00
18436;BME280;9346;52.006;4.720;2023-05-10T04:11:09;100850.72;;;13.76;100.00
18436;BME280;9346;52.006;4.720;2023-05-10T04:13:38;100847.97;;;13.76;100.00
18436;BME280;9346;52.006;4.720;2023-05-10T04:16:05;100846.31;;;13.75;100.00
18436;BME280;9346;52.006;4.720;2023-05-10T04:18:32;100844.97;;;13.72;100.00
18436;BME280;9346;52.006;4.720;2023-05-10T04:21:00;100843.91;;;13.68;100.00
18436;BME280;9346;52.006;4.720;2023-05-10T04:23:27;100842.53;;;13.66;100.00
18436;BME280;9346;52.006;4.720;2023-05-10T04:25:59;100849.44;;;13.68;100.00
18436;BME280;9346;52.006;4.720;2023-05-10T04:28:28;100853.88;;;13.69;100.00
18436;BME280;9346;52.006;4.720;2023-05-10T04:31:00;100856.34;;;13.71;100.00
18436;BME280;9346;52.006;4.720;2023-05-10T04:33:28;100858.81;;;13.72;100.00
18436;BME280;9346;52.006;4.720;2023-05-10T04:35:55;100857.16;;;13.71;100.00
18436;BME280;9346;52.006;4.720;2023-05-10T04:38:22;100871.81;;;13.72;100.00
18436;BME280;9346;52.006;4.720;2023-05-10T04:40:49;100862.69;;;13.71;100.00
18436;BME280;9346;52.006;4.720;2023-05-10T04:43:17;100865.44;;;13.71;100.00
18436;BME280;9346;52.006;4.720;2023-05-10T04:45:46;100875.72;;;13.71;100.00
18436;BME280;9346;52.006;4.720;2023-05-10T04:48:13;100866.88;;;13.69;100.00
18436;BME280;9346;52.006;4.720;2023-05-10T04:50:40;100868.28;;;13.66;100.00
18436;BME280;9346;52.006;4.720;2023-05-10T04:53:07;100874.94;;;13.65;100.00
18436;BME280;9346;52.006;4.720;2023-05-10T04:55:34;100874.94;;;13.65;100.00
18436;BME280;9346;52.006;4.720;2023-05-10T04:58:01;100880.16;;;13.67;100.00
18436;BME280;9346;52.006;4.720;2023-05-10T05:00:28;100876.88;;;13.65;100.00
18436;BME280;9346;52.006;4.720;2023-05-10T05:02:56;100884.34;;;13.64;100.00
18436;BME280;9346;52.006;4.720;2023-05-10T05:05:24;100885.50;;;13.63;100.00
18436;BME280;9346;52.006;4.720;2023-05-10T05:07:51;100886.34;;;13.59;100.00
18436;BME280;9346;52.006;4.720;2023-05-10T05:10:18;100896.59;;;13.58;100.00
18436;BME280;9346;52.006;4.720;2023-05-10T05:12:45;100890.25;;;13.58;100.00
18436;BME280;9346;52.006;4.720;2023-05-10T05:15:12;100890.53;;;13.56;100.00
18436;BME280;9346;52.006;4.720;2023-05-10T05:17:40;100895.53;;;13.54;100.00
18436;BME280;9346;52.006;4.720;2023-05-10T05:20:10;100901.38;;;13.52;100.00
18436;BME280;9346;52.006;4.720;2023-05-10T05:22:38;100908.81;;;13.52;100.00
18436;BME280;9346;52.006;4.720;2023-05-10T05:25:06;100910.25;;;13.49;100.00
18436;BME280;9346;52.006;4.720;2023-05-10T05:27:33;100913.84;;;13.50;100.00
18436;BME280;9346;52.006;4.720;2023-05-10T05:30:00;100911.88;;;13.50;100.00
18436;BME280;9346;52.006;4.720;2023-05-10T05:32:27;100906.34;;;13.50;100.00
18436;BME280;9346;52.006;4.720;2023-05-10T05:34:54;100920.72;;;13.52;100.00
18436;BME280;9346;52.006;4.720;2023-05-10T05:37:23;100926.28;;;13.52;100.00
18436;BME280;9346;52.006;4.720;2023-05-10T05:39:50;100923.78;;;13.51;100.00
18436;BME280;9346;52.006;4.720;2023-05-10T05:42:17;100927.91;;;13.53;100.00
18436;BME280;9346;52.006;4.720;2023-05-10T05:44:44;100929.00;;;13.58;100.00
18436;BME280;9346;52.006;4.720;2023-05-10T05:47:12;100924.81;;;13.60;100.00
18436;BME280;9346;52.006;4.720;2023-05-10T05:49:39;100928.13;;;13.62;100.00
18436;BME280;9346;52.006;4.720;2023-05-10T05:52:06;100928.41;;;13.61;100.00
18436;BME280;9346;52.006;4.720;2023-05-10T05:54:35;100927.28;;;13.62;100.00
18436;BME280;9346;52.006;4.720;2023-05-10T05:57:01;100935.03;;;13.60;100.00
18436;BME280;9346;52.006;4.720;2023-05-10T05:59:29;100932.56;;;13.58;100.00
18436;BME280;9346;52.006;4.720;2023-05-10T06:01:56;100934.53;;;13.58;100.00
18436;BME280;9346;52.006;4.720;2023-05-10T06:04:23;100937.81;;;13.60;100.00
18436;BME280;9346;52.006;4.720;2023-05-10T06:06:51;100937.81;;;13.60;100.00
18436;BME280;9346;52.006;4.720;2023-05-10T06:09:18;100937.81;;;13.60;100.00
18436;BME280;9346;52.006;4.720;2023-05-10T06:11:46;100934.53;;;13.58;100.00
18436;BME280;9346;52.006;4.720;2023-05-10T06:14:13;100937.53;;;13.61;100.00
18436;BME280;9346;52.006;4.720;2023-05-10T06:16:40;100935.31;;;13.63;100.00
18436;BME280;9346;52.006;4.720;2023-05-10T06:19:11;100935.81;;;13.65;100.00
18436;BME280;9346;52.006;4.720;2023-05-10T06:21:38;100931.41;;;13.64;100.00
18436;BME280;9346;52.006;4.720;2023-05-10T06:24:06;100945.72;;;13.71;100.00
18436;BME280;9346;52.006;4.720;2023-05-10T06:26:33;100945.97;;;13.75;100.00
18436;BME280;9346;52.006;4.720;2023-05-10T06:29:03;100951.78;;;13.78;100.00
18436;BME280;9346;52.006;4.720;2023-05-10T06:31:30;100954.22;;;13.80;100.00
18436;BME280;9346;52.006;4.720;2023-05-10T06:33:59;100947.31;;;13.77;100.00
18436;BME280;9346;52.006;4.720;2023-05-10T06:36:26;100947.88;;;13.79;100.00
18436;BME280;9346;52.006;4.720;2023-05-10T06:38:53;100948.09;;;13.83;100.00
18436;BME280;9346;52.006;4.720;2023-05-10T06:41:20;100958.00;;;13.89;100.00
18436;BME280;9346;52.006;4.720;2023-05-10T06:43:47;100961.03;;;13.92;100.00
18436;BME280;9346;52.006;4.720;2023-05-10T06:46:15;100955.19;;;13.94;100.00
18436;BME280;9346;52.006;4.720;2023-05-10T06:48:42;100959.59;;;13.95;100.00
18436;BME280;9346;52.006;4.720;2023-05-10T06:51:10;100958.72;;;13.99;100.00
18436;BME280;9346;52.006;4.720;2023-05-10T06:53:37;100960.03;;;14.07;100.00
18436;BME280;9346;52.006;4.720;2023-05-10T06:56:04;100958.31;;;14.11;100.00
18436;BME280;9346;52.006;4.720;2023-05-10T06:58:31;100950.84;;;14.11;100.00
18436;BME280;9346;52.006;4.720;2023-05-10T07:01:02;100960.50;;;14.14;100.00
18436;BME280;9346;52.006;4.720;2023-05-10T07:03:34;100967.09;;;14.18;100.00
18436;BME280;9346;52.006;4.720;2023-05-10T07:06:01;100959.28;;;14.25;100.00
18436;BME280;9346;52.006;4.720;2023-05-10T07:08:29;100964.47;;;14.31;100.00
18436;BME280;9346;52.006;4.720;2023-05-10T07:11:01;100968.28;;;14.35;100.00
18436;BME280;9346;52.006;4.720;2023-05-10T07:13:29;100968.53;;;14.39;100.00
18436;BME280;9346;52.006;4.720;2023-05-10T07:15:56;100970.19;;;14.40;100.00
18436;BME280;9346;52.006;4.720;2023-05-10T07:18:23;100969.06;;;14.41;100.00
18436;BME280;9346;52.006;4.720;2023-05-10T07:20:52;100979.34;;;14.40;100.00
18436;BME280;9346;52.006;4.720;2023-05-10T07:23:19;100977.91;;;14.43;100.00
18436;BME280;9346;52.006;4.720;2023-05-10T07:25:46;100980.63;;;14.48;100.00
18436;BME280;9346;52.006;4.720;2023-05-10T07:28:13;100979.19;;;14.50;100.00
18436;BME280;9346;52.006;4.720;2023-05-10T07:30:40;100983.25;;;14.58;100.00
18436;BME280;9346;52.006;4.720;2023-05-10T07:33:08;100985.34;;;14.66;100.00
18436;BME280;9346;52.006;4.720;2023-05-10T07:35:35;100988.88;;;14.71;100.00
18436;BME280;9346;52.006;4.720;2023-05-10T07:38:04;100988.81;;;14.76;100.00
18436;BME280;9346;52.006;4.720;2023-05-10T07:40:31;100988.81;;;14.76;100.00
18436;BME280;9346;52.006;4.720;2023-05-10T07:42:58;100990.72;;;14.81;100.00
18436;BME280;9346;52.006;4.720;2023-05-10T07:45:26;100994.28;;;14.81;100.00
18436;BME280;9346;52.006;4.720;2023-05-10T07:47:55;100984.63;;;14.79;100.00
18436;BME280;9346;52.006;4.720;2023-05-10T07:50:22;100980.41;;;14.81;100.00
18436;BME280;9346;52.006;4.720;2023-05-10T07:52:49;100989.81;;;14.85;100.00
18436;BME280;9346;52.006;4.720;2023-05-10T07:55:19;100981.78;;;14.84;100.00
18436;BME280;9346;52.006;4.720;2023-05-10T07:57:46;100986.81;;;14.82;100.00
18436;BME280;9346;52.006;4.720;2023-05-10T08:00:17;100985.47;;;14.79;100.00
18436;BME280;9346;52.006;4.720;2023-05-10T08:02:44;100982.97;;;14.78;100.00
18436;BME280;9346;52.006;4.720;2023-05-10T08:05:11;100992.06;;;14.83;100.00
18436;BME280;9346;52.006;4.720;2023-05-10T08:07:39;100997.53;;;14.88;100.00
18436;BME280;9346;52.006;4.720;2023-05-10T08:10:08;101006.06;;;14.92;100.00
18436;BME280;9346;52.006;4.720;2023-05-10T08:12:38;100996.94;;;14.91;100.00
18436;BME280;9346;52.006;4.720;2023-05-10T08:15:06;101009.44;;;14.89;100.00
18436;BME280;9346;52.006;4.720;2023-05-10T08:17:33;101013.88;;;14.90;100.00
18436;BME280;9346;52.006;4.720;2023-05-10T08:20:01;101009.97;;;14.91;100.00
18436;BME280;9346;52.006;4.720;2023-05-10T08:22:28;101007.75;;;14.93;100.00
18436;BME280;9346;52.006;4.720;2023-05-10T08:24:55;101016.81;;;14.98;100.00
18436;BME280;9346;52.006;4.720;2023-05-10T08:27:22;101019.28;;;15.00;100.00
18436;BME280;9346;52.006;4.720;2023-05-10T08:29:54;101022.66;;;14.97;100.00
18436;BME280;9346;52.006;4.720;2023-05-10T08:32:21;101024.84;;;15.00;100.00
18436;BME280;9346;52.006;4.720;2023-05-10T08:34:48;101035.34;;;15.03;100.00
18436;BME280;9346;52.006;4.720;2023-05-10T08:37:15;101028.34;;;15.05;100.00
18436;BME280;9346;52.006;4.720;2023-05-10T08:39:42;101034.50;;;15.02;100.00
18436;BME280;9346;52.006;4.720;2023-05-10T08:42:11;101035.09;;;14.99;100.00
18436;BME280;9346;52.006;4.720;2023-05-10T08:44:39;101037.88;;;14.99;100.00
18436;BME280;9346;52.006;4.720;2023-05-10T08:47:09;101040.28;;;15.06;100.00
18436;BME280;9346;52.006;4.720;2023-05-10T08:49:37;101039.91;;;15.12;100.00
18436;BME280;9346;52.006;4.720;2023-05-10T08:52:05;101044.00;;;15.15;100.00
18436;BME280;9346;52.006;4.720;2023-05-10T08:54:33;101043.81;;;15.11;100.00
18436;BME280;9346;52.006;4.720;2023-05-10T08:57:00;101039.06;;;15.12;100.00
18436;BME280;9346;52.006;4.720;2023-05-10T08:59:28;101043.22;;;15.14;100.00
18436;BME280;9346;52.006;4.720;2023-05-10T09:01:57;101046.72;;;15.20;100.00
18436;BME280;9346;52.006;4.720;2023-05-10T09:04:26;101055.88;;;15.20;100.00
18436;BME280;9346;52.006;4.720;2023-05-10T09:06:53;101054.47;;;15.23;100.00
18436;BME280;9346;52.006;4.720;2023-05-10T09:09:20;101051.09;;;15.26;100.00
18436;BME280;9346;52.006;4.720;2023-05-10T09:11:48;101053.13;;;15.20;100.00
18436;BME280;9346;52.006;4.720;2023-05-10T09:14:15;101055.06;;;15.20;100.00
18436;BME280;9346;52.006;4.720;2023-05-10T09:16:42;101063.06;;;15.21;100.00
18436;BME280;9346;52.006;4.720;2023-05-10T09:19:10;101063.91;;;15.22;100.00
18436;BME280;9346;52.006;4.720;2023-05-10T09:21:41;101062.34;;;15.16;100.00
18436;BME280;9346;52.006;4.720;2023-05-10T09:24:08;101066.22;;;15.15;100.00
18436;BME280;9346;52.006;4.720;2023-05-10T09:26:45;101068.94;;;15.20;100.00
18436;BME280;9346;52.006;4.720;2023-05-10T09:29:13;101072.75;;;15.24;100.00
18436;BME280;9346;52.006;4.720;2023-05-10T09:31:45;101069.38;;;15.27;100.00
18436;BME280;9346;52.006;4.720;2023-05-10T09:34:16;101075.97;;;15.31;100.00
18436;BME280;9346;52.006;4.720;2023-05-10T09:37:09;101077.56;;;15.37;100.00
18436;BME280;9346;52.006;4.720;2023-05-10T09:42:59;101076.22;;;15.53;100.00
18436;BME280;9346;52.006;4.720;2023-05-10T09:45:28;101075.50;;;15.47;100.00
18436;BME280;9346;52.006;4.720;2023-05-10T09:47:56;101074.66;;;15.47;100.00
18436;BME280;9346;52.006;4.720;2023-05-10T09:50:24;101086.81;;;15.51;100.00
18436;BME280;9346;52.006;4.720;2023-05-10T09:52:54;101082.91;;;15.52;100.00
18436;BME280;9346;52.006;4.720;2023-05-10T09:55:38;101081.47;;;15.54;100.00
18436;BME280;9346;52.006;4.720;2023-05-10T09:58:06;101081.28;;;15.51;100.00
18436;BME280;9346;52.006;4.720;2023-05-10T10:00:36;101085.69;;;15.52;100.00
18436;BME280;9346;52.006;4.720;2023-05-10T10:03:06;101086.22;;;15.54;100.00
18436;BME280;9346;52.006;4.720;2023-05-10T10:05:34;101082.53;;;15.58;100.00
18436;BME280;9346;52.006;4.720;2023-05-10T10:08:04;101085.22;;;15.63;100.00
18436;BME280;9346;52.006;4.720;2023-05-10T10:10:32;101082.59;;;15.72;100.00
18436;BME280;9346;52.006;4.720;2023-05-10T10:13:00;101081.38;;;15.78;100.00
18436;BME280;9346;52.006;4.720;2023-05-10T10:15:26;101084.69;;;15.80;100.00
18436;BME280;9346;52.006;4.720;2023-05-10T10:17:54;101088.06;;;15.77;100.00
18436;BME280;9346;52.006;4.720;2023-05-10T10:20:22;101083.13;;;15.74;100.00
18436;BME280;9346;52.006;4.720;2023-05-10T10:22:50;101087.25;;;15.77;100.00
18436;BME280;9346;52.006;4.720;2023-05-10T10:25:20;101092.72;;;15.82;100.00
18436;BME280;9346;52.006;4.720;2023-05-10T10:27:59;101089.13;;;15.81;100.00
18436;BME280;9346;52.006;4.720;2023-05-10T10:30:35;101089.13;;;15.81;100.00
18436;BME280;9346;52.006;4.720;2023-05-10T10:33:30;101088.28;;;15.81;100.00
18436;BME280;9346;52.006;4.720;2023-05-10T10:36:01;101089.72;;;15.78;100.00
18436;BME280;9346;52.006;4.720;2023-05-10T10:38:55;101097.63;;;15.71;100.00
18436;BME280;9346;52.006;4.720;2023-05-10T10:41:31;101104.13;;;15.61;100.00
18436;BME280;9346;52.006;4.720;2023-05-10T10:44:33;101100.00;;;15.59;100.00
18436;BME280;9346;52.006;4.720;2023-05-10T10:47:21;101104.91;;;15.67;100.00
18436;BME280;9346;52.006;4.720;2023-05-10T10:50:05;101108.31;;;15.78;100.00
18436;BME280;9346;52.006;4.720;2023-05-10T10:52:34;101099.63;;;15.84;100.00
18436;BME280;9346;52.006;4.720;2023-05-10T10:55:03;101106.63;;;15.95;100.00
18436;BME280;9346;52.006;4.720;2023-05-10T10:57:45;101099.88;;;16.01;100.00
18436;BME280;9346;52.006;4.720;2023-05-10T11:00:24;101098.91;;;16.11;100.00
18436;BME280;9346;52.006;4.720;2023-05-10T11:02:53;101099.50;;;16.21;100.00
18436;BME280;9346;52.006;4.720;2023-05-10T11:05:25;101105.94;;;16.35;100.00
18436;BME280;9346;52.006;4.720;2023-05-10T11:07:53;101106.91;;;16.44;100.00
18436;BME280;9346;52.006;4.720;2023-05-10T11:10:21;101112.47;;;16.44;100.00
18436;BME280;9346;52.006;4.720;2023-05-10T11:12:59;101105.25;;;16.43;100.00
18436;BME280;9346;52.006;4.720;2023-05-10T11:15:31;101107.06;;;16.34;100.00
18436;BME280;9346;52.006;4.720;2023-05-10T11:17:58;101107.06;;;16.21;100.00
18436;BME280;9346;52.006;4.720;2023-05-10T11:20:27;101105.78;;;16.13;100.00
18436;BME280;9346;52.006;4.720;2023-05-10T11:23:10;101103.19;;;16.03;100.00
18436;BME280;9346;52.006;4.720;2023-05-10T11:25:41;101104.09;;;15.99;100.00
18436;BME280;9346;52.006;4.720;2023-05-10T11:28:11;101109.72;;;15.94;100.00
18436;BME280;9346;52.006;4.720;2023-05-10T11:30:39;101101.50;;;15.89;100.00
18436;BME280;9346;52.006;4.720;2023-05-10T11:33:06;101105.06;;;15.89;100.00
18436;BME280;9346;52.006;4.720;2023-05-10T11:35:37;101109.53;;;15.90;100.00
18436;BME280;9346;52.006;4.720;2023-05-10T11:38:07;101106.22;;;15.88;100.00
18436;BME280;9346;52.006;4.720;2023-05-10T11:40:33;101117.63;;;15.87;100.00
18436;BME280;9346;52.006;4.720;2023-05-10T11:43:01;101116.50;;;15.88;100.00
18436;BME280;9346;52.006;4.720;2023-05-10T11:45:31;101120.09;;;15.88;100.00
18436;BME280;9346;52.006;4.720;2023-05-10T11:47:59;101118.47;;;15.87;100.00
18436;BME280;9346;52.006;4.720;2023-05-10T11:50:28;101117.63;;;15.87;100.00
18436;BME280;9346;52.006;4.720;2023-05-10T11:52:57;101124.00;;;15.87;100.00
18436;BME280;9346;52.006;4.720;2023-05-10T11:55:25;101123.41;;;15.90;100.00
18436;BME280;9346;52.006;4.720;2023-05-10T11:57:52;101137.00;;;15.92;100.00
18436;BME280;9346;52.006;4.720;2023-05-10T12:00:20;101122.28;;;15.91;100.00
18436;BME280;9346;52.006;4.720;2023-05-10T12:02:48;101128.38;;;15.93;100.00
18436;BME280;9346;52.006;4.720;2023-05-10T12:05:16;101129.16;;;15.94;100.00
18436;BME280;9346;52.006;4.720;2023-05-10T12:07:43;101131.34;;;15.97;100.00
18436;BME280;9346;52.006;4.720;2023-05-10T12:10:11;101134.41;;;15.95;100.00
18436;BME280;9346;52.006;4.720;2023-05-10T12:12:41;101138.09;;;15.91;100.00
18436;BME280;9346;52.006;4.720;2023-05-10T12:15:12;101134.53;;;15.90;100.00
18436;BME280;9346;52.006;4.720;2023-05-10T12:17:44;101140.38;;;15.89;100.00
18436;BME280;9346;52.006;4.720;2023-05-10T12:20:17;101138.09;;;15.91;100.00
18436;BME280;9346;52.006;4.720;2023-05-10T12:22:46;101138.56;;;15.98;100.00
18436;BME280;9346;52.006;4.720;2023-05-10T12:25:14;101133.94;;;16.07;100.00
18436;BME280;9346;52.006;4.720;2023-05-10T12:27:48;101135.16;;;16.19;100.00
18436;BME280;9346;52.006;4.720;2023-05-10T12:30:20;101137.75;;;16.29;100.00
18436;BME280;9346;52.006;4.720;2023-05-10T12:32:47;101130.34;;;16.38;100.00
18436;BME280;9346;52.006;4.720;2023-05-10T12:35:16;101135.53;;;16.45;100.00
18436;BME280;9346;52.006;4.720;2023-05-10T12:37:47;101143.56;;;16.46;100.00
18436;BME280;9346;52.006;4.720;2023-05-10T12:40:14;101134.53;;;16.54;100.00
18436;BME280;9346;52.006;4.720;2023-05-10T12:42:41;101143.91;;;16.58;100.00
18436;BME280;9346;52.006;4.720;2023-05-10T12:45:10;101142.25;;;16.57;100.00
18436;BME280;9346;52.006;4.720;2023-05-10T12:47:37;101142.06;;;16.54;100.00
18436;BME280;9346;52.006;4.720;2023-05-10T12:50:05;101143.50;;;16.51;100.00
18436;BME280;9346;52.006;4.720;2023-05-10T12:52:35;101136.69;;;16.44;100.00
18436;BME280;9346;52.006;4.720;2023-05-10T12:55:02;101147.50;;;16.45;100.00
18436;BME280;9346;52.006;4.720;2023-05-10T12:57:30;101153.78;;;16.51;100.00
18436;BME280;9346;52.006;4.720;2023-05-10T12:59:57;101147.81;;;16.57;100.00
18436;BME280;9346;52.006;4.720;2023-05-10T13:02:24;101156.78;;;16.68;100.00
18436;BME280;9346;52.006;4.720;2023-05-10T13:04:51;101151.03;;;16.78;100.00
18436;BME280;9346;52.006;4.720;2023-05-10T13:07:18;101152.28;;;16.85;100.00